This is the latest recevied weather packets stored in our database for station/object 9M2EVR-2. If no packets are shown the sender has not sent any weather packets the latest 10 day(s).
| Time | Temp. | Humidity | Pressure | Rain* | Wind** | Luminosity | Snow |
|---|---|---|---|---|---|---|---|
| 1777706426 | 45° C | 33% | 1003.8 hPa | - | - | - | - |
| 1777705525 | 45.56° C | 33% | 1003.9 hPa | - | - | - | - |
| 1777704624 | 45.56° C | 32% | 1004.2 hPa | - | - | - | - |
| 1777703723 | 46.67° C | 32% | 1004.5 hPa | - | - | - | - |
| 1777702823 | 47.22° C | 31% | 1004.7 hPa | - | - | - | - |
| 1777701922 | 47.22° C | 30% | 1004.9 hPa | - | - | - | - |
| 1777701021 | 47.78° C | 31% | 1005.5 hPa | - | - | - | - |
| 1777700120 | 48.89° C | 28% | 1005.8 hPa | - | - | - | - |
| 1777699219 | 48.89° C | 30% | 1006 hPa | - | - | - | - |
| 1777698319 | 49.44° C | 30% | 1006.4 hPa | - | - | - | - |
| 1777697418 | 50° C | 30% | 1006.9 hPa | - | - | - | - |
| 1777696517 | 49.44° C | 29% | 1007.2 hPa | - | - | - | - |
| 1777695616 | 49.44° C | 31% | 1007.5 hPa | - | - | - | - |
| 1777694715 | 49.44° C | 31% | 1007.8 hPa | - | - | - | - |
| 1777693814 | 48.89° C | 32% | 1008 hPa | - | - | - | - |
| 1777692914 | 48.89° C | 31% | 1008.1 hPa | - | - | - | - |
| 1777692013 | 48.33° C | 33% | 1008.3 hPa | - | - | - | - |
| 1777691112 | 47.78° C | 33% | 1008.5 hPa | - | - | - | - |
| 1777690211 | 46.67° C | 38% | 1008.7 hPa | - | - | - | - |
| 1777689310 | 45° C | 40% | 1008.7 hPa | - | - | - | - |
| 1777688410 | 42.78° C | 47% | 1009.1 hPa | - | - | - | - |
| 1777649014 | 35° C | 55% | 1007.9 hPa | - | - | - | - |
| 1777648113 | 35° C | 54% | 1008 hPa | - | - | - | - |
| 1777644510 | 35.56° C | 52% | 1008 hPa | - | - | - | - |
| 1777643609 | 36.11° C | 52% | 1007.8 hPa | - | - | - | - |
* Rain since midnight (hover to see other rain measurements)
** Current wind speed in m/s (hover to see current wind gust speed)